Time;durP1;ratioP1;P1;durP2;ratioP2;P2;SDS_P1;SDS_P2;PMS_P1;PMS_P2;Temp;Humidity;BMP_temperature;BMP_pressure;BME280_temperature;BME280_humidity;BME280_pressure;Samples;Min_cycle;Max_cycle;Signal;HPM_P1;HPM_P2
2023/06/06 00:01:14;;;;;;;9.32;8.52;;;;;;;13.31;71.78;98338.38;5007954;28;20072;-76
2023/06/06 00:03:41;;;;;;;10.23;9.23;;;;;;;13.12;71.60;98327.13;5023370;28;20132;-76
2023/06/06 00:06:06;;;;;;;11.63;10.63;;;;;;;13.45;70.95;98312.50;5002309;28;20060;-76
2023/06/06 00:11:07;;;;;;;10.45;9.43;;;;;;;13.50;70.08;98320.66;5069776;28;20464;-74
2023/06/06 00:13:34;;;;;;;11.00;10.00;;;;;;;13.22;71.29;98329.09;5040797;28;20029;-75
2023/06/06 00:16:01;;;;;;;11.15;10.15;;;;;;;13.33;71.36;98314.56;5059132;28;20039;-75
2023/06/06 00:18:27;;;;;;;15.23;14.02;;;;;;;12.70;73.46;98325.31;5025440;28;20135;-75
2023/06/06 00:20:53;;;;;;;14.88;13.57;;;;;;;13.08;71.87;98330.59;5031543;28;20048;-75
2023/06/06 00:23:20;;;;;;;13.48;12.23;;;;;;;13.38;71.66;98320.03;5004797;28;20491;-75
2023/06/06 00:25:46;;;;;;;13.50;12.45;;;;;;;13.20;72.01;98315.03;5057941;28;20031;-76
2023/06/06 00:28:12;;;;;;;15.68;14.15;;;;;;;12.97;72.88;98312.63;5005046;28;20121;-76
2023/06/06 00:30:38;;;;;;;13.80;12.60;;;;;;;13.35;71.61;98312.41;5029128;28;20049;-75
2023/06/06 00:33:03;;;;;;;16.95;15.65;;;;;;;12.87;73.48;98309.81;5030247;28;20059;-76
2023/06/06 00:35:29;;;;;;;16.40;15.20;;;;;;;12.98;72.33;98309.66;5024612;28;20029;-76
2023/06/06 00:37:55;;;;;;;17.33;15.93;;;;;;;12.94;73.14;98310.44;5037587;28;20140;-75
2023/06/06 00:40:20;;;;;;;18.95;17.55;;;;;;;12.91;73.56;98316.34;5064777;28;20036;-75
2023/06/06 00:42:45;;;;;;;18.77;17.48;;;;;;;12.89;73.90;98313.91;5023810;28;20045;-75
2023/06/06 00:45:11;;;;;;;18.70;17.20;;;;;;;13.07;72.53;98304.63;5013610;28;20108;-75
2023/06/06 00:47:36;;;;;;;17.92;16.73;;;;;;;13.03;72.65;98308.88;5017365;28;20033;-75
2023/06/06 00:50:02;;;;;;;16.50;15.30;;;;;;;13.22;72.00;98307.47;5009926;28;20139;-75
2023/06/06 00:52:27;;;;;;;16.35;15.15;;;;;;;13.14;72.51;98313.31;5022273;28;20123;-75
2023/06/06 00:54:53;;;;;;;18.52;17.23;;;;;;;12.82;73.46;98307.88;5025527;28;20108;-74
2023/06/06 00:57:20;;;;;;;17.33;16.13;;;;;;;13.16;72.57;98303.09;5039377;28;20396;-75
2023/06/06 00:59:45;;;;;;;19.38;17.88;;;;;;;12.72;73.93;98286.16;5007607;28;20032;-75
2023/06/06 01:02:14;;;;;;;19.17;17.77;;;;;;;12.84;73.35;98299.50;5037871;28;20044;-75
2023/06/06 01:04:39;;;;;;;19.67;18.48;;;;;;;12.64;74.25;98304.72;5044922;28;20017;-75
2023/06/06 01:10:13;;;;;;;17.80;16.60;;;;;;;13.03;72.50;98303.47;5069855;28;20482;-75
2023/06/06 01:12:55;;;;;;;20.08;18.67;;;;;;;12.67;73.70;98309.63;5022664;28;20028;-74
2023/06/06 01:15:23;;;;;;;21.08;19.60;;;;;;;12.48;74.19;98307.25;5024992;28;20578;-74
2023/06/06 01:17:49;;;;;;;22.08;20.60;;;;;;;12.42;74.27;98308.28;5013438;28;20465;-76
2023/06/06 01:20:15;;;;;;;23.05;21.55;;;;;;;12.51;74.05;98305.16;5049161;28;20056;-76
2023/06/06 01:22:43;;;;;;;25.95;24.27;;;;;;;12.31;74.94;98311.13;5029780;28;20384;-77
2023/06/06 01:25:09;;;;;;;22.48;20.90;;;;;;;12.54;73.74;98305.44;5003026;28;20084;-76
2023/06/06 01:27:35;;;;;;;23.20;21.70;;;;;;;12.70;73.19;98303.69;5021679;28;20025;-76
2023/06/06 01:30:03;;;;;;;20.38;18.67;;;;;;;12.86;73.09;98303.59;5044164;28;20402;-76
2023/06/06 01:32:45;;;;;;;18.55;17.20;;;;;;;12.91;72.37;98300.13;5013499;28;20095;-75
2023/06/06 01:35:40;;;;;;;19.90;18.48;;;;;;;12.46;73.66;98304.00;4999574;28;20052;-75
2023/06/06 01:45:11;;;;;;;21.42;19.88;;;;;;;12.51;73.22;98299.75;5007520;28;20149;-76
2023/06/06 01:55:41;;;;;;;26.10;24.50;;;;;;;12.00;74.40;98272.13;4974668;28;20057;-76
2023/06/06 01:58:08;;;;;;;25.13;23.60;;;;;;;12.27;73.75;98308.13;4970347;28;20578;-75
2023/06/06 02:00:33;;;;;;;22.73;21.33;;;;;;;12.14;74.09;98299.56;4960177;28;20499;-75
2023/06/06 02:02:59;;;;;;;23.08;21.65;;;;;;;11.90;74.13;98304.41;5018538;28;20037;-75
2023/06/06 02:05:24;;;;;;;24.17;22.67;;;;;;;11.74;74.54;98289.06;5056026;28;20029;-76
2023/06/06 02:07:51;;;;;;;27.80;25.80;;;;;;;11.31;76.79;98299.75;5038138;28;20047;-76
2023/06/06 02:10:17;;;;;;;30.27;28.50;;;;;;;11.71;75.85;98300.38;5025742;28;20025;-76
2023/06/06 02:12:43;;;;;;;28.77;27.05;;;;;;;11.92;74.48;98302.28;5031907;28;20148;-76
2023/06/06 02:15:10;;;;;;;28.67;26.88;;;;;;;12.06;74.84;98302.72;4995611;28;20041;-75
2023/06/06 02:17:35;;;;;;;27.70;26.10;;;;;;;11.66;75.78;98302.97;5018345;28;20037;-76
2023/06/06 02:20:04;;;;;;;28.63;26.88;;;;;;;11.77;75.34;98294.78;5017475;28;20475;-77
2023/06/06 02:22:29;;;;;;;25.77;24.02;;;;;;;12.41;74.16;98300.44;5016370;28;20069;-76
2023/06/06 02:24:54;;;;;;;24.63;23.13;;;;;;;12.45;74.63;98307.78;5008962;28;20021;-77
2023/06/06 02:27:21;;;;;;;22.80;21.48;;;;;;;12.52;74.47;98306.75;5035822;28;20059;-73
2023/06/06 02:29:46;;;;;;;25.65;23.92;;;;;;;12.13;75.84;98304.16;5037278;28;20029;-73
2023/06/06 02:32:12;;;;;;;28.98;27.23;;;;;;;12.29;75.31;98308.69;5021005;28;20511;-73
2023/06/06 02:34:37;;;;;;;26.42;24.92;;;;;;;12.38;75.62;98309.03;5012488;28;20148;-73
2023/06/06 02:37:06;;;;;;;25.33;23.83;;;;;;;12.45;74.51;98296.97;5033858;28;20033;-73
2023/06/06 02:39:35;;;;;;;27.35;25.50;;;;;;;12.31;74.75;98300.31;4985968;28;20025;-74
2023/06/06 02:42:02;;;;;;;27.98;26.25;;;;;;;12.15;75.23;98296.63;5030005;28;20037;-72
2023/06/06 02:44:29;;;;;;;29.58;27.73;;;;;;;12.19;75.23;98286.94;5013212;28;20117;-72
2023/06/06 02:49:29;;;;;;;26.17;24.60;;;;;;;12.35;74.55;98288.75;5059105;28;20490;-74
2023/06/06 02:51:58;;;;;;;27.05;25.45;;;;;;;12.22;75.28;98297.25;5024229;28;20028;-74
2023/06/06 02:54:23;;;;;;;25.42;23.63;;;;;;;12.37;74.37;98289.31;5024508;28;20039;-75
2023/06/06 02:56:49;;;;;;;30.20;28.40;;;;;;;12.17;75.32;98267.50;5044293;23;20040;-74
2023/06/06 02:59:14;;;;;;;28.92;27.10;;;;;;;12.38;75.25;98299.06;5019483;28;20051;-75
2023/06/06 03:01:44;;;;;;;27.25;25.55;;;;;;;12.51;74.20;98289.72;5035126;28;20098;-75
2023/06/06 03:04:14;;;;;;;26.50;25.00;;;;;;;12.54;74.66;98293.81;5002151;28;20037;-74
2023/06/06 03:06:40;;;;;;;25.77;24.17;;;;;;;12.55;74.07;98298.16;5015635;28;20025;-74
2023/06/06 03:09:06;;;;;;;24.63;23.10;;;;;;;12.61;73.68;98294.41;5031398;28;20040;-73
2023/06/06 03:11:32;;;;;;;30.52;28.73;;;;;;;10.94;77.55;98300.25;5003384;28;20471;-74
2023/06/06 03:13:59;;;;;;;38.50;36.40;;;;;;;10.64;78.63;98298.91;5016769;28;20147;-75
2023/06/06 03:16:26;;;;;;;41.83;39.42;;;;;;;11.01;78.01;98306.28;5028395;28;20082;-76
2023/06/06 03:18:55;;;;;;;41.42;39.03;;;;;;;11.23;77.82;98309.06;5014474;28;20033;-74
2023/06/06 03:21:20;;;;;;;41.50;39.10;;;;;;;11.22;77.31;98302.03;4994646;28;20078;-75
2023/06/06 03:23:47;;;;;;;39.63;37.55;;;;;;;11.35;76.92;98300.88;5035353;28;20037;-74
2023/06/06 03:26:13;;;;;;;43.00;40.60;;;;;;;10.94;78.92;98300.25;5009368;28;20025;-77
2023/06/06 03:28:39;;;;;;;40.97;38.65;;;;;;;11.22;76.98;98301.22;5012540;28;20087;-76
2023/06/06 03:31:06;;;;;;;46.35;43.85;;;;;;;10.94;78.35;98300.25;5009817;28;20048;-76
2023/06/06 03:33:38;;;;;;;41.92;39.58;;;;;;;11.26;76.64;98313.13;5006437;28;20115;-76
2023/06/06 03:36:06;;;;;;;39.70;37.30;;;;;;;11.40;76.45;98303.66;5007659;28;20125;-75
2023/06/06 03:38:32;;;;;;;38.17;36.20;;;;;;;11.27;76.62;98309.41;5011972;28;20029;-76
2023/06/06 03:40:58;;;;;;;34.90;33.08;;;;;;;11.64;75.53;98316.72;5010403;28;20442;-75
2023/06/06 03:43:23;;;;;;;34.50;32.50;;;;;;;11.56;75.27;98308.22;5018368;28;20063;-76
2023/06/06 03:45:48;;;;;;;37.67;35.60;;;;;;;11.75;75.88;98323.91;5034275;28;20035;-75
2023/06/06 03:48:14;;;;;;;34.90;33.10;;;;;;;11.61;75.55;98311.81;5018144;28;20124;-75
2023/06/06 03:50:40;;;;;;;37.25;35.25;;;;;;;11.87;75.24;98314.88;5024248;28;20068;-75
2023/06/06 03:53:07;;;;;;;37.05;34.80;;;;;;;11.96;75.48;98319.59;5027790;28;20585;-75
2023/06/06 03:55:34;;;;;;;35.30;33.13;;;;;;;11.89;75.48;98323.53;5028860;28;20025;-75
2023/06/06 03:58:03;;;;;;;34.60;32.60;;;;;;;12.01;75.73;98321.53;5023110;28;20049;-75
2023/06/06 04:00:30;;;;;;;31.83;29.67;;;;;;;12.41;74.69;98322.88;5036944;28;20032;-74
2023/06/06 04:02:56;;;;;;;30.27;28.30;;;;;;;12.60;73.68;98319.81;4990183;28;20033;-75
2023/06/06 04:05:21;;;;;;;29.15;27.35;;;;;;;12.44;74.06;98322.34;4998836;28;20495;-76
2023/06/06 04:07:47;;;;;;;27.35;25.63;;;;;;;12.67;73.16;98332.03;5001798;28;20025;-75
2023/06/06 04:10:12;;;;;;;29.05;27.35;;;;;;;12.42;74.06;98324.50;5007880;28;20029;-75
2023/06/06 04:12:39;;;;;;;27.08;25.45;;;;;;;12.52;74.12;98318.38;5011499;28;20078;-76
2023/06/06 04:15:07;;;;;;;27.30;25.40;;;;;;;12.63;73.44;98324.69;5024640;28;20044;-75
2023/06/06 04:17:33;;;;;;;24.73;23.13;;;;;;;12.75;73.17;98322.66;5017710;28;20098;-75
2023/06/06 04:20:00;;;;;;;25.23;23.67;;;;;;;12.81;72.84;98319.75;4998790;28;20495;-75
2023/06/06 04:22:27;;;;;;;26.90;25.40;;;;;;;12.68;73.55;98317.47;5019100;28;20082;-75
2023/06/06 04:24:52;;;;;;;34.05;32.15;;;;;;;11.86;77.44;98330.25;5005476;28;20037;-75
2023/06/06 04:27:18;;;;;;;38.90;36.80;;;;;;;11.91;77.57;98319.53;5012380;28;20021;-75
2023/06/06 04:29:45;;;;;;;36.90;34.88;;;;;;;12.00;77.20;98326.13;4996639;28;20039;-75
2023/06/06 04:32:13;;;;;;;39.53;36.90;;;;;;;12.30;75.94;98321.09;5006589;28;20023;-74
2023/06/06 04:34:40;;;;;;;36.67;33.95;;;;;;;12.39;75.55;98329.59;5000594;28;20033;-75
2023/06/06 04:37:08;;;;;;;38.33;35.85;;;;;;;12.63;75.01;98327.41;5019455;28;20324;-75
2023/06/06 04:39:35;;;;;;;33.42;31.42;;;;;;;12.76;74.76;98324.31;4999647;28;20503;-74
2023/06/06 04:42:02;;;;;;;32.70;30.88;;;;;;;12.81;74.53;98327.88;5012270;28;20068;-75
2023/06/06 04:44:29;;;;;;;30.17;28.48;;;;;;;13.07;73.66;98327.06;4990225;28;20029;-75
2023/06/06 04:47:00;;;;;;;28.13;26.27;;;;;;;13.46;72.92;98319.56;5004782;28;20406;-75
2023/06/06 04:49:35;;;;;;;24.77;23.27;;;;;;;13.58;72.90;98322.06;5033314;28;20037;-76
2023/06/06 04:52:06;;;;;;;27.73;25.95;;;;;;;13.00;75.33;98312.09;5012711;28;20128;-74
2023/06/06 04:54:33;;;;;;;28.98;27.17;;;;;;;13.14;74.49;98321.44;5016657;28;20041;-75
2023/06/06 04:57:01;;;;;;;28.60;26.80;;;;;;;12.95;74.49;98314.78;5034565;28;20471;-73
2023/06/06 04:59:27;;;;;;;31.23;29.33;;;;;;;12.56;76.24;98313.28;5030422;28;20048;-74
2023/06/06 05:01:53;;;;;;;29.23;27.40;;;;;;;12.93;74.76;98308.78;5035149;28;20025;-73
2023/06/06 05:04:18;;;;;;;28.48;26.48;;;;;;;13.08;74.30;98309.78;5021436;28;20379;-74
2023/06/06 05:06:44;;;;;;;27.10;25.40;;;;;;;13.38;73.57;98301.09;5024053;28;20076;-74
2023/06/06 05:09:09;;;;;;;26.10;24.48;;;;;;;13.31;74.18;98300.50;5027104;28;20108;-75
2023/06/06 05:11:35;;;;;;;24.58;22.95;;;;;;;13.40;73.70;98293.53;5023482;28;20029;-74
2023/06/06 05:14:00;;;;;;;24.73;22.98;;;;;;;13.94;72.55;98299.53;5016465;28;20037;-75
2023/06/06 05:16:26;;;;;;;18.38;17.05;;;;;;;13.99;71.69;98296.03;5007140;28;20036;-75
2023/06/06 05:18:52;;;;;;;15.65;14.50;;;;;;;14.56;69.28;98296.84;5047864;28;20410;-75
2023/06/06 05:21:20;;;;;;;16.90;15.77;;;;;;;14.28;70.92;98289.94;5007199;28;20111;-75
2023/06/06 05:23:46;;;;;;;23.83;22.23;;;;;;;14.13;72.78;98298.00;5019568;28;20037;-75
2023/06/06 05:26:11;;;;;;;23.00;21.45;;;;;;;13.88;73.66;98294.38;5023259;28;20036;-75
2023/06/06 05:29:09;;;;;;;20.90;19.50;;;;;;;13.94;72.01;98264.34;5101105;23;20042;-75
2023/06/06 05:31:37;;;;;;;22.65;21.10;;;;;;;14.04;72.24;98293.34;5025851;28;20495;-75
2023/06/06 05:34:13;;;;;;;19.20;17.88;;;;;;;14.13;71.50;98256.56;5005129;28;20034;-75
2023/06/06 05:36:49;;;;;;;17.45;16.25;;;;;;;14.30;71.11;98273.44;5017310;23;20381;-73
2023/06/06 05:39:22;;;;;;;16.38;15.02;;;;;;;14.72;69.29;98287.66;5027542;28;20130;-75
2023/06/06 05:41:48;;;;;;;13.82;12.50;;;;;;;14.78;69.22;98293.88;4984393;28;20097;-75
2023/06/06 05:44:13;;;;;;;12.90;12.00;;;;;;;15.20;68.60;98287.13;5017639;28;20084;-75
2023/06/06 05:46:39;;;;;;;11.15;10.25;;;;;;;15.09;68.31;98280.09;4998799;28;20055;-75
2023/06/06 05:49:05;;;;;;;9.40;8.40;;;;;;;15.40;66.30;98288.22;5018480;28;20030;-74
2023/06/06 05:51:30;;;;;;;7.55;6.90;;;;;;;15.33;65.78;98285.78;5023635;28;20191;-73
2023/06/06 05:53:56;;;;;;;8.25;7.43;;;;;;;15.64;66.11;98281.13;5029209;28;20025;-71
2023/06/06 05:56:21;;;;;;;7.70;6.88;;;;;;;15.93;63.74;98274.03;5034516;28;20086;-75
2023/06/06 05:58:47;;;;;;;7.20;6.47;;;;;;;15.80;65.07;98285.44;5022125;28;20030;-75
2023/06/06 06:01:13;;;;;;;8.73;6.50;;;;;;;15.90;64.31;98285.44;5026514;28;20033;-75
2023/06/06 06:03:41;;;;;;;7.90;6.35;;;;;;;16.21;63.99;98295.09;5044571;28;20025;-75
2023/06/06 06:06:08;;;;;;;6.68;6.07;;;;;;;16.10;64.79;98290.81;5007182;28;20037;-75
2023/06/06 06:08:34;;;;;;;10.05;6.90;;;;;;;15.77;65.06;98280.59;5042043;28;20071;-75
2023/06/06 06:11:00;;;;;;;6.68;6.03;;;;;;;16.04;64.83;98288.38;5046540;28;20104;-75
2023/06/06 06:13:26;;;;;;;7.15;6.07;;;;;;;15.67;65.57;98283.31;5032450;28;20528;-75
2023/06/06 06:15:51;;;;;;;7.13;6.25;;;;;;;15.74;65.04;98287.38;5030144;28;20128;-75
2023/06/06 06:18:16;;;;;;;6.72;5.97;;;;;;;16.14;64.52;98291.06;5040236;28;20033;-75
2023/06/06 06:20:42;;;;;;;6.75;6.03;;;;;;;16.07;64.29;98288.63;5039938;28;20044;-75
2023/06/06 06:23:07;;;;;;;6.50;5.90;;;;;;;15.70;65.08;98296.34;5045037;28;20063;-75
2023/06/06 06:25:35;;;;;;;6.38;5.60;;;;;;;15.70;65.09;98291.75;5014529;28;20048;-75
2023/06/06 06:28:01;;;;;;;6.00;5.50;;;;;;;15.64;64.69;98292.00;5007722;28;20089;-75
2023/06/06 06:30:27;;;;;;;5.53;5.03;;;;;;;15.47;65.22;98291.50;5035525;28;20039;-74
2023/06/06 06:32:52;;;;;;;7.43;5.82;;;;;;;15.41;65.58;98295.25;5042789;28;20463;-75
2023/06/06 06:35:18;;;;;;;6.38;5.53;;;;;;;15.80;64.71;98290.88;5019181;28;20033;-75
2023/06/06 06:37:43;;;;;;;5.40;4.57;;;;;;;15.75;64.24;98296.34;5042805;28;20055;-75
2023/06/06 06:40:12;;;;;;;5.28;4.70;;;;;;;16.04;63.05;98308.19;5036924;28;20039;-74
2023/06/06 06:42:45;;;;;;;5.43;4.65;;;;;;;16.06;63.86;98297.03;5025277;28;20026;-75
2023/06/06 06:45:23;;;;;;;5.53;4.88;;;;;;;15.65;65.28;98293.63;5022412;28;20422;-74
2023/06/06 06:47:48;;;;;;;5.93;5.35;;;;;;;16.19;63.79;98300.00;5038220;28;20450;-74
2023/06/06 06:50:14;;;;;;;5.20;4.70;;;;;;;16.45;63.67;98298.78;5032680;28;20037;-74
2023/06/06 06:52:39;;;;;;;8.88;4.85;;;;;;;16.39;62.89;98307.25;5015163;28;20033;-75
2023/06/06 06:55:05;;;;;;;5.07;4.30;;;;;;;16.54;62.85;98302.59;5031798;28;20479;-75
2023/06/06 06:57:31;;;;;;;5.35;4.28;;;;;;;16.40;63.41;98315.16;5013123;28;20029;-74
2023/06/06 06:59:58;;;;;;;5.03;4.47;;;;;;;16.40;63.45;98293.41;5046057;28;20025;-75
2023/06/06 07:02:24;;;;;;;5.15;4.05;;;;;;;16.68;62.78;98308.22;5046372;28;20049;-75
2023/06/06 07:04:49;;;;;;;5.65;4.38;;;;;;;16.77;62.84;98306.53;5027705;28;20160;-75
2023/06/06 07:07:15;;;;;;;7.07;4.70;;;;;;;16.62;62.97;98309.34;5015604;28;20120;-75
2023/06/06 07:09:41;;;;;;;5.05;4.47;;;;;;;16.55;63.14;98298.78;5003331;28;20030;-75
2023/06/06 07:12:07;;;;;;;6.60;4.60;;;;;;;16.81;63.05;98312.22;5029120;28;20037;-75
2023/06/06 07:14:33;;;;;;;5.10;4.00;;;;;;;16.67;62.64;98314.75;5038131;28;20367;-75
2023/06/06 07:16:58;;;;;;;4.75;4.32;;;;;;;16.80;62.59;98306.00;5034576;28;20095;-75
2023/06/06 07:19:26;;;;;;;7.07;4.45;;;;;;;16.71;63.06;98312.31;5028188;28;20112;-75
2023/06/06 07:21:52;;;;;;;4.75;4.22;;;;;;;17.09;62.76;98303.31;5029036;28;20036;-75
2023/06/06 07:24:17;;;;;;;4.55;4.15;;;;;;;17.11;62.10;98317.44;5045348;28;20022;-75
2023/06/06 07:26:44;;;;;;;6.15;4.53;;;;;;;17.34;61.46;98315.94;5042289;28;20036;-75
2023/06/06 07:29:10;;;;;;;4.65;4.10;;;;;;;17.33;62.35;98306.13;5045536;28;20114;-75
2023/06/06 07:31:36;;;;;;;5.93;4.03;;;;;;;17.24;62.36;98320.38;5033521;28;20112;-75
2023/06/06 07:34:02;;;;;;;6.53;4.22;;;;;;;17.45;62.32;98318.28;5026915;28;20032;-75
2023/06/06 07:36:27;;;;;;;5.20;3.95;;;;;;;17.08;62.56;98328.94;5029194;28;20029;-75
2023/06/06 07:38:53;;;;;;;4.93;3.97;;;;;;;17.11;62.47;98320.16;5045139;28;20021;-75
2023/06/06 07:41:20;;;;;;;4.55;3.67;;;;;;;16.59;63.78;98316.16;5046852;28;20041;-75
2023/06/06 07:43:45;;;;;;;6.93;3.95;;;;;;;16.67;64.15;98313.94;5043157;28;20048;-75
2023/06/06 07:46:10;;;;;;;4.88;4.15;;;;;;;16.74;63.74;98322.59;5046648;28;20467;-75
2023/06/06 07:48:36;;;;;;;4.47;3.78;;;;;;;16.69;64.45;98325.34;5045148;28;20029;-76
2023/06/06 07:51:02;;;;;;;5.70;4.38;;;;;;;16.49;65.57;98323.53;5044671;28;20059;-76
2023/06/06 07:53:27;;;;;;;5.45;4.88;;;;;;;16.56;66.32;98327.59;5037622;28;20095;-75
2023/06/06 07:55:53;;;;;;;5.07;4.40;;;;;;;16.78;66.29;98334.56;5033973;28;20068;-75
2023/06/06 07:58:25;;;;;;;5.65;5.15;;;;;;;16.20;67.96;98336.13;5038188;28;20051;-75
2023/06/06 08:00:50;;;;;;;7.32;6.82;;;;;;;16.06;69.31;98338.63;5050763;28;20047;-75
2023/06/06 08:03:16;;;;;;;7.90;7.35;;;;;;;15.62;70.52;98337.63;4981477;28;20025;-75
2023/06/06 08:05:41;;;;;;;9.18;8.55;;;;;;;15.87;70.33;98340.28;5033863;28;20446;-75
2023/06/06 08:08:07;;;;;;;10.93;10.23;;;;;;;15.73;71.31;98339.22;5017762;28;20104;-75
2023/06/06 08:10:33;;;;;;;12.85;12.05;;;;;;;15.75;71.84;98337.06;5034370;28;20136;-75
2023/06/06 08:13:01;;;;;;;12.48;11.77;;;;;;;15.56;72.24;98344.16;5017080;28;20021;-76
2023/06/06 08:15:27;;;;;;;15.73;14.82;;;;;;;15.51;72.54;98344.97;5017717;28;20052;-75
2023/06/06 08:17:52;;;;;;;12.32;11.52;;;;;;;15.96;70.72;98329.69;5026254;28;20472;-75
2023/06/06 08:20:18;;;;;;;12.25;11.45;;;;;;;15.86;71.28;98338.69;5012441;28;20032;-75
2023/06/06 08:22:51;;;;;;;11.43;10.82;;;;;;;15.87;71.37;98335.69;5051583;28;20534;-76
2023/06/06 08:25:16;;;;;;;12.52;11.82;;;;;;;16.09;71.39;98335.34;5001512;28;20025;-75
2023/06/06 08:27:42;;;;;;;12.80;12.10;;;;;;;16.07;71.50;98340.25;5022629;28;20029;-75
2023/06/06 08:30:08;;;;;;;12.88;12.13;;;;;;;15.80;72.22;98334.31;5019121;28;20045;-76
2023/06/06 08:32:34;;;;;;;15.98;15.13;;;;;;;15.60;72.97;98339.81;5038891;28;20079;-76
2023/06/06 08:34:59;;;;;;;16.63;15.70;;;;;;;15.77;72.90;98335.72;5031856;28;20469;-75
2023/06/06 08:37:25;;;;;;;16.30;15.50;;;;;;;15.70;72.89;98334.38;5030418;28;20397;-75
2023/06/06 08:39:50;;;;;;;17.75;16.88;;;;;;;15.74;73.36;98352.56;5019240;28;20136;-75
2023/06/06 08:42:18;;;;;;;16.95;16.08;;;;;;;15.64;73.99;98351.72;5030311;28;20461;-75
2023/06/06 08:44:44;;;;;;;17.65;16.52;;;;;;;15.90;73.49;98346.00;5044806;28;20036;-75
2023/06/06 08:47:09;;;;;;;18.10;17.10;;;;;;;16.01;73.24;98352.22;5025406;28;20026;-75
2023/06/06 08:49:37;;;;;;;18.83;17.92;;;;;;;15.82;73.90;98348.47;5043641;28;20143;-75
2023/06/06 08:52:05;;;;;;;20.10;19.10;;;;;;;15.95;74.04;98350.59;5030358;28;20025;-75
2023/06/06 08:54:31;;;;;;;19.42;18.40;;;;;;;16.05;73.21;98350.59;5040989;28;20041;-75
2023/06/06 08:56:57;;;;;;;19.67;18.67;;;;;;;15.85;74.37;98365.03;5023216;28;20553;-75
2023/06/06 08:59:22;;;;;;;20.65;19.65;;;;;;;16.00;73.78;98371.50;5020516;28;20047;-75
2023/06/06 09:01:50;;;;;;;22.40;21.10;;;;;;;15.90;74.39;98372.34;5024282;28;20029;-76
2023/06/06 09:04:16;;;;;;;23.85;22.63;;;;;;;15.67;74.80;98372.91;5026696;28;20044;-75
2023/06/06 09:06:45;;;;;;;26.58;25.20;;;;;;;15.91;74.76;98365.84;5041199;28;20025;-75
2023/06/06 09:09:11;;;;;;;27.95;26.55;;;;;;;15.95;74.68;98364.19;5020145;28;20487;-76
2023/06/06 09:11:37;;;;;;;27.75;26.35;;;;;;;15.98;75.13;98379.13;5023453;28;20480;-75
2023/06/06 09:14:06;;;;;;;34.90;33.17;;;;;;;15.61;76.86;98380.25;5026637;28;20049;-75
2023/06/06 09:16:32;;;;;;;40.20;38.20;;;;;;;15.46;78.48;98376.72;5007655;28;20039;-75
2023/06/06 09:18:58;;;;;;;38.90;37.10;;;;;;;15.81;77.00;98376.72;5020264;28;20041;-75
2023/06/06 09:21:33;;;;;;;41.90;39.90;;;;;;;15.47;78.43;98379.19;5022471;28;20025;-75
2023/06/06 09:23:58;;;;;;;39.92;37.90;;;;;;;15.69;77.56;98376.16;5021935;28;20045;-73
2023/06/06 09:26:24;;;;;;;37.08;35.13;;;;;;;15.97;76.28;98372.06;5022820;28;20022;-75
2023/06/06 09:28:49;;;;;;;33.25;31.65;;;;;;;15.99;76.13;98373.41;5032934;28;20041;-75
2023/06/06 09:31:22;;;;;;;33.22;31.73;;;;;;;16.08;75.02;98371.75;5016540;28;20105;-75
2023/06/06 09:33:53;;;;;;;32.97;31.27;;;;;;;16.39;75.93;98376.03;5021382;28;20034;-75
2023/06/06 09:36:21;;;;;;;30.85;28.98;;;;;;;16.44;75.18;98381.44;5020398;28;20041;-75
2023/06/06 09:38:48;;;;;;;25.25;24.05;;;;;;;16.83;73.23;98383.47;5007258;28;20100;-75
2023/06/06 09:41:13;;;;;;;22.83;21.52;;;;;;;16.73;72.40;98381.66;5023743;28;20116;-75
2023/06/06 09:43:39;;;;;;;23.83;22.63;;;;;;;16.76;73.11;98380.25;5023065;28;20159;-75
2023/06/06 09:46:05;;;;;;;20.88;19.52;;;;;;;16.69;72.53;98372.38;5041551;28;20403;-75
2023/06/06 09:48:31;;;;;;;20.23;19.08;;;;;;;16.75;72.33;98384.06;5026709;28;20577;-75
2023/06/06 09:50:57;;;;;;;20.02;18.70;;;;;;;17.00;71.67;98381.22;5024158;28;20033;-75
2023/06/06 09:53:26;;;;;;;15.70;14.80;;;;;;;17.10;70.60;98376.53;5046296;28;20021;-75
2023/06/06 09:55:52;;;;;;;16.30;15.40;;;;;;;17.12;70.47;98373.53;4986595;28;20514;-75
2023/06/06 09:58:20;;;;;;;16.42;15.23;;;;;;;17.17;70.42;98376.22;5013033;28;20060;-75
2023/06/06 10:00:47;;;;;;;16.67;15.68;;;;;;;17.22;70.33;98373.47;5030198;28;20502;-75
2023/06/06 10:03:18;;;;;;;16.38;15.18;;;;;;;17.43;70.12;98374.94;5040397;28;20025;-75
2023/06/06 10:05:45;;;;;;;17.40;16.35;;;;;;;17.38;70.66;98377.69;5024388;28;20044;-75
2023/06/06 10:08:12;;;;;;;16.48;15.35;;;;;;;17.95;69.06;98377.78;5028040;28;20482;-75
2023/06/06 10:10:39;;;;;;;19.83;18.80;;;;;;;17.72;70.92;98378.53;5048545;28;20028;-75
2023/06/06 10:13:04;;;;;;;17.90;16.65;;;;;;;17.98;70.73;98359.22;5007547;28;20030;-75
2023/06/06 10:15:30;;;;;;;14.55;13.52;;;;;;;17.74;69.50;98376.34;5025221;28;20029;-75
2023/06/06 10:17:56;;;;;;;13.88;13.07;;;;;;;17.45;69.21;98372.75;5036388;28;20549;-75
2023/06/06 10:20:22;;;;;;;12.90;12.10;;;;;;;17.62;68.54;98378.63;5022811;28;20384;-75
2023/06/06 10:22:48;;;;;;;11.93;11.10;;;;;;;17.35;68.81;98366.56;4994693;28;20025;-75
2023/06/06 10:25:14;;;;;;;10.57;9.88;;;;;;;17.34;68.07;98373.09;5033850;28;20384;-75
2023/06/06 10:27:54;;;;;;;10.05;9.45;;;;;;;17.46;67.75;98368.91;5008443;28;20028;-75
2023/06/06 10:30:41;;;;;;;9.75;9.13;;;;;;;17.78;66.72;98371.94;5031245;28;20038;-75
2023/06/06 10:33:43;;;;;;;8.65;7.90;;;;;;;17.95;66.40;98371.50;5039836;28;20036;-75
2023/06/06 10:36:13;;;;;;;9.00;8.32;;;;;;;17.77;66.96;98380.41;5011461;28;20136;-75
2023/06/06 10:38:39;;;;;;;9.05;8.43;;;;;;;17.69;67.25;98376.38;5045877;28;20075;-75
2023/06/06 10:41:16;;;;;;;8.52;7.80;;;;;;;17.89;66.48;98365.31;5044998;28;20021;-76
2023/06/06 10:43:42;;;;;;;9.05;8.43;;;;;;;17.90;67.01;98369.63;5028295;28;20103;-75
2023/06/06 10:46:08;;;;;;;8.57;7.97;;;;;;;18.11;66.38;98372.19;5039537;28;20026;-75
2023/06/06 10:48:45;;;;;;;8.85;7.75;;;;;;;18.05;66.61;98376.03;5022163;28;20060;-75
2023/06/06 10:51:28;;;;;;;8.93;8.18;;;;;;;18.03;67.09;98378.25;5002632;28;20092;-75
2023/06/06 10:54:16;;;;;;;10.80;10.07;;;;;;;18.10;67.27;98374.09;5032953;28;20514;-76
2023/06/06 10:56:46;;;;;;;9.93;9.15;;;;;;;17.66;67.89;98385.13;5010734;28;20037;-73
2023/06/06 10:59:13;;;;;;;11.18;10.38;;;;;;;17.76;68.12;98385.03;5021113;28;20033;-72
2023/06/06 11:01:44;;;;;;;10.57;9.80;;;;;;;17.91;68.20;98390.34;5033457;28;20039;-74
2023/06/06 11:04:20;;;;;;;13.88;12.88;;;;;;;18.21;69.18;98381.06;5015540;28;20037;-72
2023/06/06 11:06:47;;;;;;;11.93;11.23;;;;;;;18.19;68.79;98383.25;5024951;28;20036;-76
2023/06/06 11:09:22;;;;;;;13.48;12.68;;;;;;;18.17;68.89;98381.91;5002972;28;20028;-77
2023/06/06 11:11:48;;;;;;;11.40;10.75;;;;;;;18.15;68.41;98381.41;5008518;28;20037;-76
2023/06/06 11:14:13;;;;;;;11.30;10.50;;;;;;;18.56;67.03;98377.13;5031398;28;20028;-76
2023/06/06 11:16:39;;;;;;;10.15;9.55;;;;;;;18.21;67.03;98374.78;5043353;28;20041;-76
2023/06/06 11:19:06;;;;;;;10.25;9.60;;;;;;;18.45;66.89;98372.88;5039732;28;20060;-74
2023/06/06 11:21:34;;;;;;;11.27;10.48;;;;;;;18.51;67.68;98380.75;5042203;28;20041;-76
2023/06/06 11:24:01;;;;;;;10.30;9.60;;;;;;;18.64;66.48;98368.31;5044742;28;20021;-76
2023/06/06 11:26:27;;;;;;;10.15;9.35;;;;;;;18.79;66.82;98379.03;5042765;28;20056;-76
2023/06/06 11:28:55;;;;;;;10.15;9.40;;;;;;;18.52;66.29;98381.56;5039366;28;20025;-74
2023/06/06 11:31:23;;;;;;;8.50;7.90;;;;;;;18.51;65.80;98379.91;5024369;28;20033;-75
2023/06/06 11:33:48;;;;;;;8.40;7.80;;;;;;;18.47;65.70;98373.44;5044457;28;20108;-76
2023/06/06 11:36:14;;;;;;;8.05;7.45;;;;;;;18.80;64.88;98372.47;5025849;28;20048;-75
2023/06/06 11:38:42;;;;;;;9.02;8.27;;;;;;;19.09;65.37;98375.09;5037911;28;20107;-75
2023/06/06 11:41:08;;;;;;;13.00;12.10;;;;;;;18.90;67.25;98377.81;5040235;28;20037;-75
2023/06/06 11:43:33;;;;;;;11.15;10.45;;;;;;;18.83;67.36;98380.09;5042830;28;20021;-75
2023/06/06 11:46:03;;;;;;;10.27;9.48;;;;;;;18.52;67.00;98381.56;5026204;28;20033;-76